Flight Track Log - Related Links

Times and Time Zones

All times are in EDT time to prevent confusion due to time zone crossing. See the N39PH flight status page for this flight to view local times or setup timezone preferences in your user account.

Time Position Orientation Groundspeed Altitude Reporting Facility
EDT Latitude Longitude Course Direction KTS MPH feet Rate Location/Type
Tue 12:30:43 PM 37.9722 -107.8736 58° Northeast 200 230 14,800  Level Denver Center
Tue 12:31:45 PM 38.0078 -107.8025 58° Northeast 209 241 16,700 1,548 Climbing Denver Center
Tue 12:32:47 PM 38.0400 -107.7386 57° Northeast 220 253 18,000 1,355 Climbing Denver Center
Tue 12:33:49 PM 38.0761 -107.6636 59° Northeast 223 257 19,500 1,279 Climbing Denver Center
Tue 12:35:03 PM 38.1119 -107.5964 56° Northeast 221 254 20,900 1,235 Climbing Denver Center
Tue 12:36:05 PM 38.1575 -107.5261 50° Northeast 228 262 22,300 919 Climbing Denver Center
Tue 12:37:07 PM 38.1981 -107.4503 56° Northeast 231 266 22,800 384 Climbing Denver Center
Tue 12:38:10 PM 38.2344 -107.3853 55° Northeast 236 272 23,100 144 Climbing Denver Center
Tue 12:39:12 PM 38.2850 -107.2956 54° Northeast 275 316 23,100  Level Denver Center
Tue 12:40:14 PM 38.3311 -107.2175 53° Northeast 286 329 23,100  Level Denver Center
Tue 12:41:16 PM 38.3836 -107.1158 57° Northeast 297 342 23,100  Level Denver Center
Tue 12:42:18 PM 38.4325 -107.0308 54° Northeast 297 342 23,100  Level Denver Center
Tue 12:43:20 PM 38.4794 -106.9433 56° Northeast 297 342 23,100  Level Denver Center
Tue 12:44:22 PM 38.5261 -106.8525 57° Northeast 304 350 23,100 -48 Level Denver Center
Tue 12:45:24 PM 38.5750 -106.7642 55° Northeast 307 353 23,000  Descending Denver Center
Tue 12:46:26 PM 38.6200 -106.6758 57° Northeast 299 344 23,100  Climbing Denver Center
Tue 12:47:28 PM 38.6767 -106.5689 56° Northeast 302 348 23,000  Descending Denver Center
Tue 12:48:30 PM 38.7258 -106.4794 55° Northeast 306 352 23,100  Climbing Denver Center
Tue 12:49:32 PM 38.7719 -106.3892 57° Northeast 305 351 23,000 -48 Descending Denver Center
Tue 12:50:34 PM 38.8194 -106.3003 56° Northeast 303 349 23,000  Level Denver Center
Tue 12:51:36 PM 38.8661 -106.2125 56° Northeast 301 346 23,000 48 Level Denver Center
Tue 12:52:38 PM 38.9133 -106.1253 55° Northeast 298 343 23,100 -387 Climbing Denver Center
Tue 12:53:40 PM 38.9692 -106.0133 57° Northeast 308 354 22,200 -532 Descending Denver Center
Tue 12:54:42 PM 39.0189 -105.9211 55° Northeast 313 360 22,000 -1,065 Descending Denver Center
Tue 12:55:44 PM 39.0664 -105.8289 56° Northeast 311 358 20,000 -1,452 Descending Denver Center
Tue 12:56:46 PM 39.1164 -105.7361 55° Northeast 321 369 19,000 -1,306 Descending Denver Center
Tue 12:57:48 PM 39.1611 -105.6486 57° Northeast 302 348 17,300 -1,161 Descending Denver Center
Tue 12:58:50 PM 39.2025 -105.5667 57° Northeast 282 325 16,600 -816 Descending Denver Center
Tue 12:59:53 PM 39.2506 -105.4767 55° Northeast 272 313 15,600 -768 Descending Denver Center
Tue 01:00:55 PM 39.2911 -105.4003 56° Northeast 260 299 15,000 -387 Descending Denver Center
Tue 01:01:57 PM 39.3311 -105.3197 57° Northeast 249 287 14,800 -581 Descending Denver Center
Tue 01:02:59 PM 39.3686 -105.2456 57° Northeast 247 284 13,800 -1,016 Descending Denver Center
Tue 01:04:01 PM 39.4114 -105.1669 55° Northeast 249 287 12,700 -1,161 Descending Denver Center
Tue 01:05:03 PM 39.4458 -105.0958 58° Northeast 237 273 11,400 -1,403 Descending Denver Center
Tue 01:06:05 PM 39.4836 -105.0197 57° Northeast 235 270 9,800 -1,306 Descending Denver Center
Tue 01:07:07 PM 39.5064 -104.9464 68° East 215 247 8,700 -1,306 Descending Denver Center
Tue 01:08:09 PM 39.5303 -104.8861 63° Northeast 178 205 7,100 -1,306 Descending Denver Center
Tue 01:09:11 PM 39.5531 -104.8478 52° Northeast 145 167 6,000 -1,065 Descending Denver Center
Tue 01:11:00 PM 39.5667 -104.8333 57° Northeast  Level FlightAware Approximate
Tue 01:18:00 PM 39.5701 -104.8493 57° Northeast  Level Estimated
Tue 01:19:00 PM 39.5701 -104.8493 57° Northeast  Level Estimated
Tue 01:20:00 PM 39.5701 -104.8493 57° Northeast  Level Estimated

Login

Don't have an account? Register now (free) for customized features, flight alerts, and more!